Time;durP1;ratioP1;P1;durP2;ratioP2;P2;SDS_P1;SDS_P2;PMS_P1;PMS_P2;Temp;Humidity;BMP_temperature;BMP_pressure;BME280_temperature;BME280_humidity;BME280_pressure;Samples;Min_cycle;Max_cycle;Signal;HPM_P1;HPM_P2
2022/11/09 00:00:07;;;;;;;35.97;17.85;;;26.70;99.90;;;;;;5052973;28;20021;-65
2022/11/09 00:02:34;;;;;;;74.60;47.05;;;26.80;99.90;;;;;;5053251;28;20028;-64
2022/11/09 00:05:01;;;;;;;41.95;19.80;;;26.90;99.90;;;;;;5053360;28;20024;-64
2022/11/09 00:07:30;;;;;;;35.97;17.83;;;26.90;99.90;;;;;;5053332;28;20067;-65
2022/11/09 00:09:57;;;;;;;35.38;14.98;;;27.00;99.90;;;;;;5052924;28;20385;-65
2022/11/09 00:12:26;;;;;;;32.90;15.85;;;26.90;99.90;;;;;;5053242;28;20029;-65
2022/11/09 00:14:52;;;;;;;30.88;15.25;;;26.90;99.90;;;;;;5052232;28;20492;-64
2022/11/09 00:17:19;;;;;;;30.80;11.80;;;26.90;99.90;;;;;;5053131;28;20108;-65
2022/11/09 00:19:45;;;;;;;16.90;10.35;;;27.00;99.90;;;;;;5053192;28;20528;-65
2022/11/09 00:22:12;;;;;;;37.38;29.02;;;26.90;99.90;;;;;;5053361;28;20095;-65
2022/11/09 00:24:38;;;;;;;34.97;24.75;;;26.90;99.90;;;;;;5053323;28;20083;-65
2022/11/09 00:27:05;;;;;;;57.97;41.92;;;26.90;99.90;;;;;;5052894;28;20496;-64
2022/11/09 00:29:31;;;;;;;64.32;45.78;;;26.90;99.90;;;;;;5053249;28;20052;-64
2022/11/09 00:31:58;;;;;;;102.78;82.57;;;26.90;99.90;;;;;;5052934;28;20021;-64
2022/11/09 00:34:24;;;;;;;33.33;24.08;;;27.00;99.90;;;;;;5053088;28;20397;-64
2022/11/09 00:36:51;;;;;;;30.25;18.63;;;27.00;99.90;;;;;;5053139;28;20036;-64
2022/11/09 00:39:18;;;;;;;23.70;13.57;;;27.00;99.90;;;;;;5053021;28;20100;-64
2022/11/09 00:41:44;;;;;;;17.02;10.35;;;27.10;99.90;;;;;;5052975;28;20388;-64
2022/11/09 00:44:11;;;;;;;10.43;7.88;;;27.10;99.90;;;;;;5053117;28;20013;-64
2022/11/09 00:46:37;;;;;;;13.95;7.90;;;27.00;99.90;;;;;;5052821;28;20083;-64
2022/11/09 00:49:04;;;;;;;15.52;9.73;;;27.00;99.90;;;;;;5056022;28;20033;-64
2022/11/09 00:51:30;;;;;;;20.40;14.02;;;27.00;99.90;;;;;;5057068;28;20075;-65
2022/11/09 00:53:57;;;;;;;21.73;12.40;;;27.00;99.90;;;;;;5057214;28;20495;-64
2022/11/09 00:56:24;;;;;;;16.38;9.00;;;27.00;99.90;;;;;;5057065;28;20115;-64
2022/11/09 00:58:54;;;;;;;18.38;9.43;;;27.10;99.90;;;;;;5057017;28;20045;-63
2022/11/09 01:01:21;;;;;;;16.30;8.82;;;27.20;99.90;;;;;;5056700;28;20033;-65
2022/11/09 01:03:48;;;;;;;21.30;10.05;;;27.40;99.90;;;;;;5056840;28;20614;-65
2022/11/09 01:06:20;;;;;;;19.90;11.38;;;27.50;99.90;;;;;;5048339;28;20107;-65
2022/11/09 01:08:46;;;;;;;19.58;12.93;;;27.60;99.90;;;;;;5036677;28;20021;-63
2022/11/09 01:11:14;;;;;;;20.73;10.88;;;27.70;99.90;;;;;;5036674;28;20740;-64
2022/11/09 01:13:41;;;;;;;22.17;11.27;;;27.70;99.90;;;;;;5040769;28;20460;-64
2022/11/09 01:16:10;;;;;;;23.25;11.80;;;27.70;99.90;;;;;;5056419;28;20021;-64
2022/11/09 01:18:37;;;;;;;21.13;12.45;;;27.80;99.90;;;;;;5056512;28;20036;-64
2022/11/09 01:21:08;;;;;;;22.55;12.38;;;28.00;99.90;;;;;;5056550;28;20036;-64
2022/11/09 01:23:35;;;;;;;18.70;12.43;;;28.00;99.90;;;;;;5056333;28;20029;-64
2022/11/09 01:26:04;;;;;;;27.35;17.70;;;27.90;99.90;;;;;;5056306;28;20418;-64
2022/11/09 01:28:31;;;;;;;26.33;14.10;;;27.90;99.90;;;;;;5056302;28;20044;-64
2022/11/09 01:31:12;;;;;;;18.85;14.85;;;27.90;99.90;;;;;;5056164;28;20388;-64
2022/11/09 01:33:39;;;;;;;27.55;18.33;;;27.90;99.90;;;;;;5056180;28;20035;-65
2022/11/09 01:36:08;;;;;;;20.40;14.88;;;27.90;99.90;;;;;;5056007;28;20064;-64
2022/11/09 01:38:36;;;;;;;28.88;16.65;;;28.00;99.90;;;;;;5056358;28;20108;-64
2022/11/09 01:41:06;;;;;;;26.25;15.85;;;28.00;99.90;;;;;;5056142;28;20091;-64
2022/11/09 01:43:34;;;;;;;28.98;22.42;;;28.10;99.90;;;;;;5055891;28;20415;-64
2022/11/09 01:46:18;;;;;;;26.33;19.88;;;28.10;99.90;;;;;;5056186;28;20056;-63
2022/11/09 01:48:49;;;;;;;108.25;86.93;;;28.20;99.90;;;;;;5055779;28;20025;-63
2022/11/09 01:51:31;;;;;;;42.00;31.48;;;28.30;99.90;;;;;;5056074;28;20021;-64
2022/11/09 01:54:07;;;;;;;24.90;18.92;;;28.30;99.90;;;;;;5055774;28;20032;-64
2022/11/09 01:56:34;;;;;;;35.72;26.50;;;28.40;99.90;;;;;;5049457;28;20156;-64
2022/11/09 01:59:07;;;;;;;25.67;17.65;;;28.40;99.90;;;;;;5052659;28;20021;-64
2022/11/09 02:01:34;;;;;;;21.92;15.68;;;28.60;99.90;;;;;;5035451;28;20028;-63
2022/11/09 02:04:08;;;;;;;22.08;17.63;;;28.70;99.90;;;;;;5044663;28;20017;-63
2022/11/09 02:06:35;;;;;;;27.13;19.95;;;28.70;99.90;;;;;;5053676;28;20029;-64
2022/11/09 02:09:17;;;;;;;23.00;18.35;;;28.80;99.90;;;;;;5053931;28;20470;-64
2022/11/09 02:11:44;;;;;;;24.35;18.60;;;28.90;99.90;;;;;;5053570;28;20116;-63
2022/11/09 02:14:11;;;;;;;22.92;16.13;;;29.00;99.90;;;;;;5053518;28;20041;-64
2022/11/09 02:16:37;;;;;;;26.67;18.25;;;29.10;99.90;;;;;;5054593;28;20021;-64
2022/11/09 02:19:04;;;;;;;23.52;16.05;;;29.10;99.90;;;;;;5055110;28;20032;-65
2022/11/09 02:21:32;;;;;;;24.15;16.25;;;29.10;99.90;;;;;;5055174;28;20095;-65
2022/11/09 02:23:59;;;;;;;39.50;22.55;;;29.20;99.90;;;;;;5055107;28;20028;-65
2022/11/09 02:26:31;;;;;;;64.30;45.05;;;29.20;99.90;;;;;;5050632;28;20112;-65
2022/11/09 02:29:01;;;;;;;26.60;19.50;;;29.30;99.90;;;;;;5042360;28;20394;-65
2022/11/09 02:31:32;;;;;;;19.67;13.90;;;29.40;99.90;;;;;;5055369;28;20032;-64
2022/11/09 02:34:20;;;;;;;115.45;79.65;;;29.30;99.90;;;;;;5055083;28;20021;-63
2022/11/09 02:36:47;;;;;;;24.50;15.90;;;29.10;99.90;;;;;;5055208;28;20112;-64
2022/11/09 02:39:16;;;;;;;25.45;15.38;;;28.90;99.90;;;;;;5055051;28;20032;-63
2022/11/09 02:41:47;;;;;;;20.60;12.65;;;28.80;99.90;;;;;;5055033;28;20551;-64
2022/11/09 02:44:15;;;;;;;22.92;14.00;;;28.70;99.90;;;;;;5053124;28;20120;-63
2022/11/09 02:46:41;;;;;;;28.70;17.33;;;28.70;99.90;;;;;;5042014;28;20023;-63
2022/11/09 02:49:08;;;;;;;40.53;20.63;;;28.90;99.90;;;;;;5055028;28;20508;-62
2022/11/09 02:51:35;;;;;;;28.13;17.98;;;29.10;99.90;;;;;;5054918;28;20040;-63
2022/11/09 02:54:01;;;;;;;76.20;43.65;;;29.40;99.90;;;;;;5054741;28;20033;-62
2022/11/09 02:56:28;;;;;;;26.98;16.30;;;29.60;99.90;;;;;;5054734;28;20458;-64
2022/11/09 02:58:55;;;;;;;24.35;16.55;;;29.50;99.90;;;;;;5055155;28;20466;-66
2022/11/09 03:01:21;;;;;;;23.25;14.50;;;29.40;99.90;;;;;;5052004;28;20524;-64
2022/11/09 03:03:48;;;;;;;78.55;59.53;;;29.30;99.90;;;;;;5048688;28;20078;-64
2022/11/09 03:06:14;;;;;;;16.90;12.63;;;29.40;99.90;;;;;;5044610;28;20025;-65
2022/11/09 03:08:41;;;;;;;15.93;11.52;;;29.60;99.90;;;;;;5042586;28;20458;-64
2022/11/09 03:11:07;;;;;;;14.15;11.38;;;29.70;99.90;;;;;;5043643;28;20125;-62
2022/11/09 03:13:34;;;;;;;16.73;11.25;;;29.90;99.90;;;;;;5044445;28;20026;-65
2022/11/09 03:16:10;;;;;;;19.88;12.95;;;30.00;99.90;;;;;;5042652;28;20029;-65
2022/11/09 03:18:39;;;;;;;18.50;12.35;;;30.10;99.90;;;;;;5042329;28;20033;-63
2022/11/09 03:21:06;;;;;;;22.95;16.98;;;30.30;99.90;;;;;;5048346;28;20032;-64
2022/11/09 03:23:33;;;;;;;23.58;15.57;;;30.20;99.90;;;;;;5054536;28;20025;-64
2022/11/09 03:25:59;;;;;;;26.65;15.40;;;30.30;99.90;;;;;;5054021;28;20075;-64
2022/11/09 03:28:26;;;;;;;20.05;15.77;;;30.40;99.90;;;;;;5053741;28;20501;-65
2022/11/09 03:30:53;;;;;;;20.13;14.35;;;30.40;99.90;;;;;;5053794;28;20033;-64
2022/11/09 03:33:19;;;;;;;21.98;14.38;;;30.50;99.90;;;;;;5054028;28;20020;-65
2022/11/09 03:35:46;;;;;;;23.17;15.73;;;30.30;99.90;;;;;;5053955;28;20489;-63
2022/11/09 03:38:12;;;;;;;21.45;15.27;;;30.10;99.90;;;;;;5047239;28;20371;-65
2022/11/09 03:40:39;;;;;;;18.85;15.13;;;30.10;99.90;;;;;;5038519;28;20029;-65
2022/11/09 03:43:06;;;;;;;23.00;15.07;;;30.20;99.90;;;;;;5033992;28;20071;-65
2022/11/09 03:45:32;;;;;;;24.08;17.08;;;30.40;99.90;;;;;;5033912;28;20113;-66
2022/11/09 03:47:59;;;;;;;20.42;14.13;;;30.60;99.90;;;;;;5034258;28;20072;-66
2022/11/09 03:50:28;;;;;;;42.95;25.63;;;30.70;99.90;;;;;;5033797;28;20057;-66
2022/11/09 03:52:55;;;;;;;24.95;19.70;;;30.90;99.90;;;;;;5033561;28;20390;-65
2022/11/09 03:55:21;;;;;;;24.70;17.02;;;30.80;99.90;;;;;;5033647;28;20556;-65
2022/11/09 03:57:48;;;;;;;21.77;16.63;;;30.60;99.90;;;;;;5033694;28;20033;-63
2022/11/09 04:00:17;;;;;;;23.35;16.77;;;30.70;99.90;;;;;;5033699;28;20048;-65
2022/11/09 04:02:43;;;;;;;35.72;26.98;;;30.90;99.90;;;;;;5033559;28;20030;-64
2022/11/09 04:05:10;;;;;;;28.02;22.83;;;30.90;99.90;;;;;;5033622;28;20018;-65
2022/11/09 04:07:38;;;;;;;25.92;17.80;;;30.90;99.90;;;;;;5033540;28;20024;-64
2022/11/09 04:10:06;;;;;;;23.05;13.70;;;31.00;99.90;;;;;;5033450;28;20025;-63
2022/11/09 04:12:33;;;;;;;18.17;13.75;;;31.00;99.90;;;;;;5037741;28;20028;-62
2022/11/09 04:14:59;;;;;;;21.42;15.45;;;31.00;99.90;;;;;;5040555;28;20075;-63
2022/11/09 04:17:26;;;;;;;20.17;14.85;;;30.90;99.90;;;;;;5033120;28;20029;-63
2022/11/09 04:19:52;;;;;;;39.05;29.90;;;31.00;99.90;;;;;;5033330;28;20105;-64
2022/11/09 04:22:19;;;;;;;22.30;17.27;;;31.00;99.90;;;;;;5032844;28;20037;-62
2022/11/09 04:24:45;;;;;;;33.40;23.20;;;31.10;99.90;;;;;;5033195;28;20021;-63
2022/11/09 04:27:12;;;;;;;27.13;17.55;;;31.10;99.90;;;;;;5033214;28;20021;-64
2022/11/09 04:29:38;;;;;;;20.58;14.50;;;31.30;99.90;;;;;;5033165;28;20041;-64
2022/11/09 04:32:05;;;;;;;28.88;20.95;;;31.40;99.90;;;;;;5034638;28;20021;-62
2022/11/09 04:34:31;;;;;;;19.48;16.05;;;31.40;99.90;;;;;;5050474;28;20430;-66
2022/11/09 04:36:58;;;;;;;24.98;16.55;;;31.40;99.90;;;;;;5046386;28;20029;-67
2022/11/09 04:39:24;;;;;;;22.55;15.35;;;31.60;99.90;;;;;;5040973;28;20020;-66
2022/11/09 04:41:51;;;;;;;16.48;14.63;;;31.70;99.90;;;;;;5042661;28;20021;-64
2022/11/09 04:44:17;;;;;;;23.48;15.30;;;31.70;99.90;;;;;;5042334;28;20471;-66
2022/11/09 04:46:44;;;;;;;31.45;20.23;;;31.90;99.90;;;;;;5040907;28;20040;-65
2022/11/09 04:49:10;;;;;;;20.05;15.07;;;32.00;99.90;;;;;;5042892;28;20477;-66
2022/11/09 04:51:37;;;;;;;23.65;15.52;;;32.10;99.90;;;;;;5041991;28;20490;-66
2022/11/09 04:54:03;;;;;;;22.80;12.02;;;32.00;99.90;;;;;;5040364;28;20049;-65
2022/11/09 04:56:30;;;;;;;19.92;13.63;;;32.10;99.90;;;;;;5042361;28;20110;-65
2022/11/09 04:58:56;;;;;;;17.50;13.65;;;32.20;99.90;;;;;;5041739;28;20014;-65
2022/11/09 05:01:23;;;;;;;17.73;13.50;;;32.30;99.90;;;;;;5040275;28;20049;-66
2022/11/09 05:03:50;;;;;;;18.10;13.98;;;32.10;99.90;;;;;;5042571;28;20021;-66
2022/11/09 05:09:06;;;;;;;25.95;18.20;;;32.00;99.90;;;;;;5042403;28;20121;-66
2022/11/09 05:11:34;;;;;;;22.33;16.45;;;32.00;99.90;;;;;;5040997;28;20029;-66
2022/11/09 05:14:02;;;;;;;26.40;16.25;;;31.90;99.90;;;;;;5040623;28;20045;-66
2022/11/09 05:16:30;;;;;;;21.10;13.48;;;32.00;99.90;;;;;;5040273;28;20492;-66
2022/11/09 05:18:57;;;;;;;17.05;12.32;;;32.20;99.90;;;;;;5041197;28;20017;-66
2022/11/09 05:21:23;;;;;;;17.17;11.60;;;32.40;99.90;;;;;;5042053;28;20074;-66
2022/11/09 05:23:59;;;;;;;18.02;14.13;;;32.40;99.90;;;;;;5039132;28;20029;-66
2022/11/09 05:26:35;;;;;;;24.40;14.60;;;32.50;99.90;;;;;;5042839;28;20324;-68
2022/11/09 05:29:05;;;;;;;16.80;12.98;;;32.60;99.90;;;;;;5047760;28;20060;-63
2022/11/09 05:31:32;;;;;;;12.35;10.45;;;32.60;99.90;;;;;;5041169;28;20083;-63
2022/11/09 05:33:59;;;;;;;15.50;11.02;;;32.70;99.90;;;;;;5041601;28;20397;-64
2022/11/09 05:36:29;;;;;;;13.35;10.32;;;32.80;99.90;;;;;;5043737;28;20028;-66
2022/11/09 05:38:57;;;;;;;21.58;11.63;;;32.70;99.90;;;;;;5044662;28;20032;-66
2022/11/09 05:41:24;;;;;;;17.00;13.00;;;32.60;99.90;;;;;;5042320;28;20021;-66
2022/11/09 05:43:50;;;;;;;14.23;11.93;;;32.60;99.90;;;;;;5041949;28;20025;-66
2022/11/09 05:46:17;;;;;;;9.95;8.90;;;32.70;99.90;;;;;;5042734;28;20030;-67
2022/11/09 05:48:45;;;;;;;15.68;10.50;;;32.70;99.90;;;;;;5044669;28;20044;-67
2022/11/09 05:51:13;;;;;;;21.85;13.23;;;32.70;99.90;;;;;;5044259;28;20017;-67
2022/11/09 05:53:40;;;;;;;17.33;12.02;;;32.80;99.90;;;;;;5044096;28;20053;-66
2022/11/09 05:56:09;;;;;;;13.77;10.63;;;33.00;99.90;;;;;;5044295;28;20017;-67
2022/11/09 05:58:37;;;;;;;18.00;14.38;;;33.20;99.90;;;;;;5042793;28;20339;-67
2022/11/09 06:01:05;;;;;;;15.55;11.23;;;33.10;99.90;;;;;;5043461;28;20056;-67
2022/11/09 06:03:32;;;;;;;17.83;10.18;;;33.10;99.90;;;;;;5042069;28;20037;-66
2022/11/09 06:06:02;;;;;;;17.95;11.35;;;33.00;99.90;;;;;;5046712;28;20036;-66
2022/11/09 06:08:29;;;;;;;11.43;9.75;;;32.90;99.90;;;;;;5043333;28;20026;-64
2022/11/09 06:11:02;;;;;;;11.43;10.05;;;32.90;99.90;;;;;;5050201;28;20035;-65
2022/11/09 06:13:29;;;;;;;14.85;10.20;;;33.00;99.70;;;;;;5051820;28;20033;-66
2022/11/09 06:15:57;;;;;;;14.32;9.27;;;33.30;99.90;;;;;;5053528;28;20102;-66
2022/11/09 06:18:25;;;;;;;12.27;9.13;;;33.30;99.40;;;;;;5053309;28;20445;-65
2022/11/09 06:20:53;;;;;;;14.50;8.88;;;33.30;99.80;;;;;;5053498;28;20057;-65
2022/11/09 06:23:30;;;;;;;12.60;8.70;;;33.20;98.80;;;;;;5053451;28;20596;-66
2022/11/09 06:26:00;;;;;;;12.38;8.43;;;33.20;99.30;;;;;;5053179;28;20033;-66
2022/11/09 06:28:27;;;;;;;15.15;9.82;;;33.10;99.30;;;;;;5046023;28;20068;-65
2022/11/09 06:30:58;;;;;;;16.73;11.20;;;33.10;99.40;;;;;;5043370;28;20034;-63
2022/11/09 06:33:25;;;;;;;14.27;9.70;;;33.00;99.90;;;;;;5037865;28;20367;-64
2022/11/09 06:35:51;;;;;;;14.98;10.48;;;33.10;99.00;;;;;;5050206;28;20037;-65
2022/11/09 06:38:18;;;;;;;13.65;10.05;;;33.10;99.70;;;;;;5049926;28;20096;-64
2022/11/09 06:40:44;;;;;;;14.65;10.88;;;33.10;99.90;;;;;;5044604;28;20068;-66
2022/11/09 06:43:11;;;;;;;12.93;9.57;;;33.30;99.60;;;;;;5044194;28;20016;-65
2022/11/09 06:45:37;;;;;;;15.43;9.77;;;33.50;99.00;;;;;;5044547;28;20024;-65
2022/11/09 06:48:04;;;;;;;19.63;10.38;;;33.50;99.20;;;;;;5025532;28;20033;-64
2022/11/09 06:50:33;;;;;;;12.57;9.40;;;33.50;98.40;;;;;;5044134;28;20051;-64
2022/11/09 06:53:02;;;;;;;11.52;9.18;;;33.50;98.70;;;;;;5043602;28;20363;-64
2022/11/09 06:55:31;;;;;;;16.52;10.00;;;33.70;98.30;;;;;;5043196;28;20047;-66
2022/11/09 06:57:58;;;;;;;16.50;10.20;;;33.60;98.30;;;;;;5042648;28;20427;-64
2022/11/09 07:00:26;;;;;;;14.43;9.25;;;33.60;98.10;;;;;;5046964;28;20029;-64
2022/11/09 07:02:53;;;;;;;17.10;12.10;;;33.50;97.00;;;;;;5040329;28;20036;-67
2022/11/09 07:05:20;;;;;;;20.23;12.20;;;33.30;97.60;;;;;;5044552;28;20432;-66
2022/11/09 07:07:46;;;;;;;12.85;9.27;;;33.30;97.60;;;;;;5042608;28;20024;-66
2022/11/09 07:10:13;;;;;;;21.45;11.07;;;33.20;97.90;;;;;;5044658;28;20036;-65
2022/11/09 07:12:39;;;;;;;27.67;14.15;;;33.20;98.30;;;;;;5044002;28;20025;-66
2022/11/09 07:15:06;;;;;;;16.17;12.05;;;33.10;99.60;;;;;;5042711;28;20044;-65
2022/11/09 07:17:35;;;;;;;16.10;11.68;;;33.10;99.90;;;;;;5044070;28;20053;-63
2022/11/09 07:20:03;;;;;;;14.70;10.20;;;33.10;99.90;;;;;;5039249;28;20481;-66
2022/11/09 07:22:29;;;;;;;20.15;10.23;;;33.10;99.90;;;;;;5053996;28;20064;-65
2022/11/09 07:24:56;;;;;;;11.70;8.10;;;33.10;99.90;;;;;;5053684;28;20431;-66
2022/11/09 07:27:23;;;;;;;10.65;7.97;;;33.10;98.50;;;;;;5052026;28;20044;-66
2022/11/09 07:29:52;;;;;;;7.93;5.72;;;33.00;97.60;;;;;;5051955;28;20043;-67
2022/11/09 07:32:18;;;;;;;7.90;5.60;;;33.00;96.90;;;;;;5052063;28;20025;-67
2022/11/09 07:34:46;;;;;;;54.35;41.83;;;33.00;96.40;;;;;;5048683;28;20067;-67
2022/11/09 07:37:13;;;;;;;17.00;8.43;;;33.00;95.90;;;;;;5033210;28;20079;-67
2022/11/09 07:39:39;;;;;;;14.90;7.13;;;32.90;96.90;;;;;;5037773;28;20028;-67
2022/11/09 07:42:06;;;;;;;16.42;8.00;;;32.90;96.70;;;;;;5036505;28;20026;-67
2022/11/09 07:44:32;;;;;;;11.48;8.23;;;33.00;97.10;;;;;;5033708;28;20035;-67
2022/11/09 07:46:59;;;;;;;17.95;8.68;;;33.00;97.00;;;;;;5033787;28;20025;-66
2022/11/09 07:49:25;;;;;;;12.77;8.77;;;33.00;97.60;;;;;;5033774;28;20032;-67
2022/11/09 07:51:52;;;;;;;11.02;7.55;;;33.00;97.90;;;;;;5044381;28;20371;-63
2022/11/09 07:54:18;;;;;;;11.57;8.85;;;33.10;97.20;;;;;;5047583;28;20016;-64
2022/11/09 07:56:45;;;;;;;18.02;12.32;;;33.10;97.80;;;;;;5045325;28;20026;-63
2022/11/09 07:59:11;;;;;;;14.38;11.30;;;33.10;98.00;;;;;;5045147;28;20331;-65
2022/11/09 08:01:38;;;;;;;14.30;9.10;;;33.10;98.10;;;;;;5044310;28;20128;-62
2022/11/09 08:04:05;;;;;;;18.23;7.90;;;33.10;97.70;;;;;;5045697;28;20048;-65
2022/11/09 08:06:32;;;;;;;15.90;9.30;;;33.10;97.60;;;;;;5046235;28;20032;-64
2022/11/09 08:08:58;;;;;;;17.20;10.90;;;33.00;97.50;;;;;;5045982;28;20068;-64
2022/11/09 08:11:26;;;;;;;15.50;11.27;;;33.00;97.90;;;;;;5037657;28;20021;-64
2022/11/09 08:13:53;;;;;;;19.52;14.00;;;32.90;97.80;;;;;;5045793;28;20013;-63
2022/11/09 08:16:19;;;;;;;24.17;12.20;;;32.90;98.40;;;;;;5044243;28;20045;-64
2022/11/09 08:18:46;;;;;;;17.80;11.18;;;32.90;98.10;;;;;;5034971;28;20030;-64
2022/11/09 08:21:17;;;;;;;16.15;10.65;;;32.90;97.80;;;;;;5034130;28;20482;-62
2022/11/09 08:23:44;;;;;;;12.43;8.65;;;32.80;97.50;;;;;;5034178;28;20030;-67
2022/11/09 08:26:11;;;;;;;18.38;10.18;;;32.80;98.60;;;;;;5034314;28;20026;-67
2022/11/09 08:28:38;;;;;;;21.13;11.57;;;32.80;98.30;;;;;;5034103;28;20035;-67
2022/11/09 08:31:06;;;;;;;20.33;11.63;;;32.70;98.60;;;;;;5041630;28;20103;-67
2022/11/09 08:33:37;;;;;;;20.23;12.95;;;32.70;98.60;;;;;;5044222;28;20048;-66
2022/11/09 08:36:15;;;;;;;19.15;10.95;;;32.70;98.10;;;;;;5041867;28;20035;-66
2022/11/09 08:38:43;;;;;;;22.77;13.20;;;32.70;98.20;;;;;;5044581;28;20489;-66
2022/11/09 08:41:11;;;;;;;26.63;14.75;;;32.70;97.60;;;;;;5043181;28;20375;-65
2022/11/09 08:43:37;;;;;;;14.20;10.93;;;32.60;98.40;;;;;;5045292;28;20017;-66
2022/11/09 08:46:04;;;;;;;23.23;16.60;;;32.50;98.00;;;;;;5045497;28;20020;-66
2022/11/09 08:48:30;;;;;;;34.38;23.08;;;32.50;98.90;;;;;;5047381;28;20032;-66
2022/11/09 08:50:59;;;;;;;23.08;14.93;;;32.50;99.00;;;;;;5046862;28;20576;-65
2022/11/09 08:53:27;;;;;;;25.42;15.75;;;32.50;98.70;;;;;;5047138;28;20029;-64
2022/11/09 08:55:54;;;;;;;50.38;28.95;;;32.50;99.20;;;;;;5043913;28;20582;-64
2022/11/09 08:58:20;;;;;;;29.45;19.05;;;32.50;99.20;;;;;;5042239;28;20077;-62
2022/11/09 09:00:47;;;;;;;26.35;15.20;;;32.50;99.60;;;;;;5042999;28;20022;-61
2022/11/09 09:03:13;;;;;;;24.35;13.52;;;32.40;99.50;;;;;;5041173;28;20017;-63
2022/11/09 09:05:40;;;;;;;19.40;13.07;;;32.40;99.90;;;;;;5043075;28;20026;-63
2022/11/09 09:08:09;;;;;;;18.80;13.50;;;32.40;99.50;;;;;;5041421;28;20385;-63
2022/11/09 09:10:36;;;;;;;40.17;29.23;;;32.30;99.90;;;;;;5045061;28;20029;-63
2022/11/09 09:13:04;;;;;;;33.83;22.75;;;32.30;99.50;;;;;;5045599;28;20429;-63
2022/11/09 09:15:31;;;;;;;41.45;30.67;;;32.20;99.80;;;;;;5046799;28;20489;-63
2022/11/09 09:18:03;;;;;;;48.00;32.08;;;32.20;99.40;;;;;;5045113;28;20049;-62
2022/11/09 09:20:29;;;;;;;;;;;32.20;99.70;;;;;;5045063;28;20663;-63
2022/11/09 09:22:58;;;;;;;43.53;26.67;;;32.20;99.90;;;;;;5046672;28;19905;-66
2022/11/09 09:25:25;;;;;;;56.13;33.22;;;31.90;99.90;;;;;;5046271;28;20014;-67
2022/11/09 09:27:52;;;;;;;46.65;34.33;;;31.30;99.90;;;;;;5044544;28;20055;-66
2022/11/09 09:30:19;;;;;;;39.08;16.05;;;30.70;99.90;;;;;;5044779;28;20501;-63
2022/11/09 09:32:45;;;;;;;37.83;14.95;;;30.10;99.90;;;;;;5046605;28;20041;-63
2022/11/09 09:35:12;;;;;;;49.30;15.30;;;29.40;99.90;;;;;;5049989;28;20040;-63
2022/11/09 09:37:38;;;;;;;18.45;9.93;;;29.00;99.90;;;;;;5043677;28;20038;-63
2022/11/09 09:40:06;;;;;;;41.08;9.23;;;28.60;99.90;;;;;;5035841;28;20056;-63
2022/11/09 09:42:42;;;;;;;18.95;7.63;;;28.40;99.90;;;;;;5036050;28;20462;-63
2022/11/09 09:45:17;;;;;;;22.38;7.63;;;28.40;99.90;;;;;;5036078;28;20083;-63
2022/11/09 09:47:47;;;;;;;18.58;6.72;;;28.30;99.90;;;;;;5040578;28;20052;-63
2022/11/09 09:50:20;;;;;;;13.68;7.07;;;28.40;99.90;;;;;;5041721;28;20037;-63
2022/11/09 09:52:56;;;;;;;20.58;12.10;;;28.50;99.90;;;;;;5036118;28;20389;-62
2022/11/09 09:55:36;;;;;;;32.95;18.38;;;28.40;99.90;;;;;;5036272;28;20037;-65
2022/11/09 09:58:10;;;;;;;17.33;10.27;;;28.20;99.90;;;;;;5038488;28;20052;-64
2022/11/09 10:00:37;;;;;;;15.00;10.18;;;28.10;99.90;;;;;;5045360;28;20375;-64
2022/11/09 10:03:05;;;;;;;84.38;58.05;;;28.20;99.90;;;;;;5044286;28;20075;-64
2022/11/09 10:05:47;;;;;;;31.55;23.77;;;28.10;99.90;;;;;;5047671;28;20021;-64
2022/11/09 10:08:22;;;;;;;140.50;104.20;;;28.20;99.90;;;;;;5047785;28;20048;-64
2022/11/09 10:11:14;;;;;;;86.30;63.60;;;28.30;99.90;;;;;;5044043;28;20014;-64
2022/11/09 10:14:19;;;;;;;85.18;45.28;;;28.40;99.90;;;;;;5045002;28;20057;-65
2022/11/09 10:16:53;;;;;;;155.75;111.15;;;28.40;99.90;;;;;;5045542;28;20029;-65
2022/11/09 10:19:31;;;;;;;59.53;39.88;;;28.30;99.90;;;;;;5049413;28;20020;-65
2022/11/09 10:22:02;;;;;;;25.77;14.55;;;28.30;99.90;;;;;;5044058;28;20092;-64
2022/11/09 10:24:36;;;;;;;14.23;9.55;;;28.10;99.90;;;;;;5043523;28;20449;-64
2022/11/09 10:27:29;;;;;;;13.20;7.22;;;28.10;99.90;;;;;;5043642;28;20112;-64
2022/11/09 10:29:58;;;;;;;12.48;7.25;;;28.00;99.90;;;;;;5042695;28;20029;-68
2022/11/09 10:32:29;;;;;;;10.95;6.72;;;28.00;99.90;;;;;;5038048;28;20111;-66
2022/11/09 10:35:06;;;;;;;12.20;6.50;;;28.00;99.90;;;;;;5040652;28;20100;-64
2022/11/09 10:37:38;;;;;;;15.50;7.97;;;28.00;99.90;;;;;;5037706;28;20030;-63
2022/11/09 10:40:18;;;;;;;12.05;7.20;;;27.90;99.90;;;;;;5045218;28;20056;-62
2022/11/09 10:42:59;;;;;;;15.55;7.35;;;27.80;99.90;;;;;;5044846;28;20029;-62
2022/11/09 10:45:44;;;;;;;14.52;8.15;;;27.60;99.90;;;;;;5044800;28;20018;-65
2022/11/09 10:48:12;;;;;;;10.00;5.38;;;27.50;99.90;;;;;;5045473;28;20020;-64
2022/11/09 10:50:42;;;;;;;14.40;5.80;;;27.50;99.90;;;;;;5043828;28;20087;-65
2022/11/09 10:53:15;;;;;;;9.98;5.30;;;27.50;99.90;;;;;;5045380;28;20024;-65
2022/11/09 10:56:04;;;;;;;12.43;6.38;;;27.50;99.90;;;;;;5044372;28;20524;-63
2022/11/09 10:58:32;;;;;;;10.77;6.28;;;27.50;99.90;;;;;;5045308;28;20028;-63
2022/11/09 11:01:01;;;;;;;15.40;6.22;;;27.60;99.90;;;;;;5043877;28;20017;-63
2022/11/09 11:03:30;;;;;;;13.68;6.60;;;27.70;99.90;;;;;;5045822;28;20461;-64
2022/11/09 11:06:00;;;;;;;12.93;7.50;;;27.70;99.90;;;;;;5046527;28;20104;-62
2022/11/09 11:08:31;;;;;;;18.42;11.20;;;27.70;99.90;;;;;;5044812;28;20108;-64
2022/11/09 11:11:17;;;;;;;19.58;11.98;;;27.50;99.90;;;;;;5043854;28;20029;-62
2022/11/09 11:13:44;;;;;;;16.02;11.43;;;27.40;99.90;;;;;;5044304;28;20047;-63
2022/11/09 11:16:30;;;;;;;17.23;11.05;;;27.40;99.90;;;;;;5044211;28;20048;-63
2022/11/09 11:18:57;;;;;;;23.67;11.60;;;27.40;99.90;;;;;;5046078;28;20074;-64
2022/11/09 11:21:26;;;;;;;19.52;12.85;;;27.50;99.90;;;;;;5043406;28;20152;-65
2022/11/09 11:24:14;;;;;;;19.17;11.43;;;27.50;99.90;;;;;;5052412;28;20089;-65
2022/11/09 11:26:59;;;;;;;20.95;12.85;;;27.40;99.90;;;;;;5050713;28;20389;-64
2022/11/09 11:29:38;;;;;;;20.77;13.10;;;27.50;99.90;;;;;;5051860;28;20032;-63
2022/11/09 11:32:20;;;;;;;23.38;14.82;;;27.40;99.90;;;;;;5051125;28;20033;-63
2022/11/09 11:34:47;;;;;;;20.58;13.80;;;27.40;99.90;;;;;;5051946;28;20112;-64
2022/11/09 11:37:34;;;;;;;20.08;12.68;;;27.30;99.90;;;;;;5051699;28;20421;-64
2022/11/09 11:40:09;;;;;;;23.52;12.50;;;27.30;99.90;;;;;;4970416;28;20031;-63
2022/11/09 11:42:54;;;;;;;17.98;10.73;;;27.20;99.90;;;;;;4970673;28;20034;-64
2022/11/09 11:45:42;;;;;;;17.48;11.05;;;27.20;99.90;;;;;;4970742;28;20038;-63
2022/11/09 11:48:37;;;;;;;20.13;10.95;;;27.20;99.90;;;;;;4964918;28;20029;-65
2022/11/09 11:51:12;;;;;;;14.45;9.15;;;27.20;99.90;;;;;;4961813;28;20099;-65
2022/11/09 11:53:40;;;;;;;14.57;8.63;;;27.30;99.90;;;;;;4962583;28;20046;-64
2022/11/09 11:56:26;;;;;;;13.45;8.55;;;27.20;99.90;;;;;;4964865;28;20026;-63
2022/11/09 11:59:03;;;;;;;14.23;8.70;;;27.10;99.90;;;;;;4965685;28;20027;-62
2022/11/09 12:01:34;;;;;;;14.45;9.23;;;27.10;99.90;;;;;;4967234;28;20101;-63
2022/11/09 12:04:20;;;;;;;19.58;9.48;;;27.10;99.90;;;;;;4969137;28;20030;-63
2022/11/09 12:07:00;;;;;;;15.65;9.15;;;27.00;99.90;;;;;;5021882;22;20053;-64
2022/11/09 12:10:02;;;;;;;19.00;9.25;;;26.90;99.90;;;;;;5041351;28;20552;-63
2022/11/09 12:12:58;;;;;;;21.55;12.82;;;26.80;99.90;;;;;;5043207;28;20478;-63
2022/11/09 12:15:36;;;;;;;25.52;16.33;;;26.70;99.90;;;;;;4963088;28;20042;-64
2022/11/09 12:18:39;;;;;;;26.10;17.42;;;26.70;99.90;;;;;;4963072;28;20077;-64
2022/11/09 12:21:07;;;;;;;;;;;26.70;99.90;;;;;;4895711;29;20041;-64
2022/11/09 12:23:35;;;;;;;20.80;12.57;;;26.70;99.90;;;;;;4895533;29;19911;-65
2022/11/09 12:26:24;;;;;;;24.63;11.95;;;26.60;99.90;;;;;;4895289;29;20033;-64
2022/11/09 12:29:12;;;;;;;17.30;10.73;;;26.70;99.90;;;;;;4895263;29;20522;-65
2022/11/09 12:31:46;;;;;;;19.17;9.85;;;26.80;99.90;;;;;;4875790;29;20047;-63
2022/11/09 12:34:22;;;;;;;21.10;9.32;;;26.80;99.90;;;;;;4876175;29;20043;-65
2022/11/09 12:36:49;;;;;;;19.70;9.32;;;26.80;99.90;;;;;;4875672;29;20105;-64
2022/11/09 12:39:41;;;;;;;14.32;8.88;;;26.90;99.90;;;;;;4875721;29;20070;-63
2022/11/09 12:42:16;;;;;;;14.98;8.32;;;26.80;99.90;;;;;;4876086;29;20056;-65
2022/11/09 12:44:54;;;;;;;15.95;9.50;;;26.80;99.90;;;;;;4879728;29;20528;-65
2022/11/09 12:47:29;;;;;;;20.13;10.10;;;26.80;99.90;;;;;;4946134;29;20027;-65